sensor_id;sensor_type;location;lat;lon;timestamp;pressure;altitude;pressure_sealevel;temperature;humidity
72118;BME280;59992;47.490;8.736;2023-02-20T00:00:45;97807.64;;;7.84;74.79
72118;BME280;59992;47.490;8.736;2023-02-20T00:03:14;97807.42;;;7.83;75.19
72118;BME280;59992;47.490;8.736;2023-02-20T00:05:42;97804.94;;;7.81;75.24
72118;BME280;59992;47.490;8.736;2023-02-20T00:08:09;97805.38;;;7.79;75.44
72118;BME280;59992;47.490;8.736;2023-02-20T00:10:37;97800.16;;;7.77;75.67
72118;BME280;59992;47.490;8.736;2023-02-20T00:13:05;97804.34;;;7.73;75.43
72118;BME280;59992;47.490;8.736;2023-02-20T00:15:33;97808.20;;;7.71;75.27
72118;BME280;59992;47.490;8.736;2023-02-20T00:18:00;97810.28;;;7.71;75.21
72118;BME280;59992;47.490;8.736;2023-02-20T00:20:28;97812.73;;;7.75;74.54
72118;BME280;59992;47.490;8.736;2023-02-20T00:23:00;97812.23;;;7.77;74.50
72118;BME280;59992;47.490;8.736;2023-02-20T00:25:28;97811.95;;;7.74;74.82
72118;BME280;59992;47.490;8.736;2023-02-20T00:27:55;97815.68;;;7.78;74.69
72118;BME280;59992;47.490;8.736;2023-02-20T00:30:26;97810.73;;;7.78;74.70
72118;BME280;59992;47.490;8.736;2023-02-20T00:32:56;97813.75;;;7.79;74.70
72118;BME280;59992;47.490;8.736;2023-02-20T00:35:25;97818.28;;;7.79;74.97
72118;BME280;59992;47.490;8.736;2023-02-20T00:37:54;97810.86;;;7.77;75.29
72118;BME280;59992;47.490;8.736;2023-02-20T00:40:23;97813.70;;;7.76;74.82
72118;BME280;59992;47.490;8.736;2023-02-20T00:42:52;97812.34;;;7.75;75.30
72118;BME280;59992;47.490;8.736;2023-02-20T00:45:20;97814.86;;;7.72;75.06
72118;BME280;59992;47.490;8.736;2023-02-20T00:47:47;97823.92;;;7.72;75.08
72118;BME280;59992;47.490;8.736;2023-02-20T00:50:16;97829.04;;;7.72;75.48
72118;BME280;59992;47.490;8.736;2023-02-20T00:52:44;97831.49;;;7.73;76.28
72118;BME280;59992;47.490;8.736;2023-02-20T00:55:11;97835.23;;;7.70;75.95
72118;BME280;59992;47.490;8.736;2023-02-20T00:57:39;97831.45;;;7.70;76.21
72118;BME280;59992;47.490;8.736;2023-02-20T01:00:15;97831.42;;;7.69;76.02
72118;BME280;59992;47.490;8.736;2023-02-20T01:02:42;97829.74;;;7.67;76.32
72118;BME280;59992;47.490;8.736;2023-02-20T01:05:10;97831.52;;;7.66;76.17
72118;BME280;59992;47.490;8.736;2023-02-20T01:07:38;97829.20;;;7.64;76.36
72118;BME280;59992;47.490;8.736;2023-02-20T01:10:07;97827.71;;;7.62;76.18
72118;BME280;59992;47.490;8.736;2023-02-20T01:12:35;97832.50;;;7.60;76.62
72118;BME280;59992;47.490;8.736;2023-02-20T01:15:04;97833.31;;;7.58;76.51
72118;BME280;59992;47.490;8.736;2023-02-20T01:17:32;97835.52;;;7.56;75.76
72118;BME280;59992;47.490;8.736;2023-02-20T01:20:00;97836.69;;;7.57;76.29
72118;BME280;59992;47.490;8.736;2023-02-20T01:22:27;97828.14;;;7.53;77.09
72118;BME280;59992;47.490;8.736;2023-02-20T01:24:55;97828.36;;;7.52;76.92
72118;BME280;59992;47.490;8.736;2023-02-20T01:27:23;97823.84;;;7.52;77.26
72118;BME280;59992;47.490;8.736;2023-02-20T01:29:51;97823.09;;;7.52;76.66
72118;BME280;59992;47.490;8.736;2023-02-20T01:32:19;97818.58;;;7.44;76.99
72118;BME280;59992;47.490;8.736;2023-02-20T01:34:46;97823.30;;;7.45;75.93
72118;BME280;59992;47.490;8.736;2023-02-20T01:37:14;97825.85;;;7.44;76.51
72118;BME280;59992;47.490;8.736;2023-02-20T01:39:42;97829.50;;;7.42;76.42
72118;BME280;59992;47.490;8.736;2023-02-20T01:42:12;97827.00;;;7.41;76.24
72118;BME280;59992;47.490;8.736;2023-02-20T01:44:43;97828.02;;;7.43;76.06
72118;BME280;59992;47.490;8.736;2023-02-20T01:47:13;97823.02;;;7.40;76.60
72118;BME280;59992;47.490;8.736;2023-02-20T01:49:44;97822.95;;;7.39;76.18
72118;BME280;59992;47.490;8.736;2023-02-20T01:52:16;97825.52;;;7.36;76.29
72118;BME280;59992;47.490;8.736;2023-02-20T01:54:49;97826.60;;;7.36;76.64
72118;BME280;59992;47.490;8.736;2023-02-20T01:57:21;97830.85;;;7.37;76.35
72118;BME280;59992;47.490;8.736;2023-02-20T01:59:51;97837.25;;;7.39;77.11
72118;BME280;59992;47.490;8.736;2023-02-20T02:02:21;97836.45;;;7.41;77.02
72118;BME280;59992;47.490;8.736;2023-02-20T02:04:50;97836.83;;;7.42;76.28
72118;BME280;59992;47.490;8.736;2023-02-20T02:07:17;97835.23;;;7.40;77.08
72118;BME280;59992;47.490;8.736;2023-02-20T02:09:51;97827.63;;;7.37;77.69
72118;BME280;59992;47.490;8.736;2023-02-20T02:12:20;97824.05;;;7.35;77.86
72118;BME280;59992;47.490;8.736;2023-02-20T02:14:48;97824.26;;;7.28;77.33
72118;BME280;59992;47.490;8.736;2023-02-20T02:17:41;97823.62;;;7.28;77.15
72118;BME280;59992;47.490;8.736;2023-02-20T02:23:50;97819.11;;;7.25;77.79
72118;BME280;59992;47.490;8.736;2023-02-20T02:26:48;97820.94;;;7.26;78.09
72118;BME280;59992;47.490;8.736;2023-02-20T02:32:34;97813.55;;;7.27;78.14
72118;BME280;59992;47.490;8.736;2023-02-20T02:35:32;97813.17;;;7.26;77.62
72118;BME280;59992;47.490;8.736;2023-02-20T02:38:14;97815.18;;;7.26;78.38
72118;BME280;59992;47.490;8.736;2023-02-20T02:40:50;97817.65;;;7.24;78.36
72118;BME280;59992;47.490;8.736;2023-02-20T02:43:26;97811.96;;;7.22;78.21
72118;BME280;59992;47.490;8.736;2023-02-20T02:45:58;97806.66;;;7.20;78.67
72118;BME280;59992;47.490;8.736;2023-02-20T02:48:29;97803.02;;;7.19;78.54
72118;BME280;59992;47.490;8.736;2023-02-20T02:51:02;97800.08;;;7.21;78.88
72118;BME280;59992;47.490;8.736;2023-02-20T02:53:32;97800.48;;;7.22;78.44
72118;BME280;59992;47.490;8.736;2023-02-20T02:56:00;97801.10;;;7.22;78.08
72118;BME280;59992;47.490;8.736;2023-02-20T02:58:48;97804.77;;;7.23;77.94
72118;BME280;59992;47.490;8.736;2023-02-20T03:01:18;97803.09;;;7.24;77.79
72118;BME280;59992;47.490;8.736;2023-02-20T03:03:49;97799.31;;;7.22;78.10
72118;BME280;59992;47.490;8.736;2023-02-20T03:06:21;97801.60;;;7.22;78.76
72118;BME280;59992;47.490;8.736;2023-02-20T03:08:54;97793.31;;;7.15;78.94
72118;BME280;59992;47.490;8.736;2023-02-20T03:11:25;97794.55;;;7.17;78.79
72118;BME280;59992;47.490;8.736;2023-02-20T03:14:00;97793.90;;;7.14;78.83
72118;BME280;59992;47.490;8.736;2023-02-20T03:16:52;97794.70;;;7.12;78.51
72118;BME280;59992;47.490;8.736;2023-02-20T03:19:24;97792.90;;;7.12;77.85
72118;BME280;59992;47.490;8.736;2023-02-20T03:21:55;97786.65;;;7.09;78.07
72118;BME280;59992;47.490;8.736;2023-02-20T03:24:25;97787.86;;;7.06;78.22
72118;BME280;59992;47.490;8.736;2023-02-20T03:26:56;97784.45;;;7.04;78.06
72118;BME280;59992;47.490;8.736;2023-02-20T03:29:28;97783.48;;;7.01;77.38
72118;BME280;59992;47.490;8.736;2023-02-20T03:32:01;97781.54;;;6.96;77.98
72118;BME280;59992;47.490;8.736;2023-02-20T03:34:50;97783.95;;;6.90;78.14
72118;BME280;59992;47.490;8.736;2023-02-20T03:37:39;97778.64;;;6.80;78.57
72118;BME280;59992;47.490;8.736;2023-02-20T03:40:27;97772.27;;;6.68;78.54
72118;BME280;59992;47.490;8.736;2023-02-20T03:43:18;97767.40;;;6.56;78.58
72118;BME280;59992;47.490;8.736;2023-02-20T03:45:50;97765.59;;;6.46;78.13
72118;BME280;59992;47.490;8.736;2023-02-20T03:48:20;97765.47;;;6.39;77.79
72118;BME280;59992;47.490;8.736;2023-02-20T03:50:51;97762.02;;;6.25;78.46
72118;BME280;59992;47.490;8.736;2023-02-20T03:53:19;97754.59;;;6.09;78.75
72118;BME280;59992;47.490;8.736;2023-02-20T03:55:48;97754.95;;;5.99;79.14
72118;BME280;59992;47.490;8.736;2023-02-20T03:58:22;97758.92;;;5.92;78.10
72118;BME280;59992;47.490;8.736;2023-02-20T04:00:53;97759.70;;;5.81;78.59
72118;BME280;59992;47.490;8.736;2023-02-20T04:03:26;97763.02;;;5.69;79.06
72118;BME280;59992;47.490;8.736;2023-02-20T04:05:57;97761.47;;;5.57;79.57
72118;BME280;59992;47.490;8.736;2023-02-20T04:08:28;97757.53;;;5.47;79.08
72118;BME280;59992;47.490;8.736;2023-02-20T04:11:06;97750.90;;;5.35;79.32
72118;BME280;59992;47.490;8.736;2023-02-20T04:13:36;97748.08;;;5.27;79.23
72118;BME280;59992;47.490;8.736;2023-02-20T04:16:06;97745.49;;;5.21;78.89
72118;BME280;59992;47.490;8.736;2023-02-20T04:18:34;97746.70;;;5.14;79.57
72118;BME280;59992;47.490;8.736;2023-02-20T04:21:05;97749.74;;;5.07;79.97
72118;BME280;59992;47.490;8.736;2023-02-20T04:23:39;97746.69;;;4.97;79.18
72118;BME280;59992;47.490;8.736;2023-02-20T04:26:12;97754.66;;;4.95;79.40
72118;BME280;59992;47.490;8.736;2023-02-20T04:28:42;97750.56;;;4.88;79.53
72118;BME280;59992;47.490;8.736;2023-02-20T04:31:14;97753.71;;;4.85;78.51
72118;BME280;59992;47.490;8.736;2023-02-20T04:33:42;97756.56;;;4.80;79.52
72118;BME280;59992;47.490;8.736;2023-02-20T04:36:10;97758.61;;;4.75;78.48
72118;BME280;59992;47.490;8.736;2023-02-20T04:38:38;97745.27;;;4.64;78.72
72118;BME280;59992;47.490;8.736;2023-02-20T04:41:06;97749.80;;;4.63;80.59
72118;BME280;59992;47.490;8.736;2023-02-20T04:43:33;97747.52;;;4.55;81.04
72118;BME280;59992;47.490;8.736;2023-02-20T04:46:01;97742.90;;;4.48;81.90
72118;BME280;59992;47.490;8.736;2023-02-20T04:48:28;97748.80;;;4.44;80.20
72118;BME280;59992;47.490;8.736;2023-02-20T04:50:56;97743.84;;;4.39;80.02
72118;BME280;59992;47.490;8.736;2023-02-20T04:53:23;97744.23;;;4.33;81.87
72118;BME280;59992;47.490;8.736;2023-02-20T04:55:51;97744.28;;;4.27;81.51
72118;BME280;59992;47.490;8.736;2023-02-20T04:58:18;97740.64;;;4.23;80.56
72118;BME280;59992;47.490;8.736;2023-02-20T05:00:46;97741.85;;;4.17;80.42
72118;BME280;59992;47.490;8.736;2023-02-20T05:03:14;97744.42;;;4.07;83.05
72118;BME280;59992;47.490;8.736;2023-02-20T05:05:42;97743.83;;;4.01;84.05
72118;BME280;59992;47.490;8.736;2023-02-20T05:08:10;97745.85;;;3.95;83.73
72118;BME280;59992;47.490;8.736;2023-02-20T05:10:38;97748.02;;;3.91;82.54
72118;BME280;59992;47.490;8.736;2023-02-20T05:13:06;97750.52;;;3.88;81.28
72118;BME280;59992;47.490;8.736;2023-02-20T05:15:34;97751.09;;;3.84;82.21
72118;BME280;59992;47.490;8.736;2023-02-20T05:18:02;97750.77;;;3.76;83.11
72118;BME280;59992;47.490;8.736;2023-02-20T05:20:29;97754.88;;;3.65;83.57
72118;BME280;59992;47.490;8.736;2023-02-20T05:23:15;97757.16;;;3.57;84.51
72118;BME280;59992;47.490;8.736;2023-02-20T05:25:43;97761.79;;;3.53;85.29
72118;BME280;59992;47.490;8.736;2023-02-20T05:28:10;97761.69;;;3.49;84.89
72118;BME280;59992;47.490;8.736;2023-02-20T05:30:38;97758.31;;;3.43;85.08
72118;BME280;59992;47.490;8.736;2023-02-20T05:33:06;97753.66;;;3.38;85.17
72118;BME280;59992;47.490;8.736;2023-02-20T05:35:34;97757.05;;;3.35;85.95
72118;BME280;59992;47.490;8.736;2023-02-20T05:38:02;97752.21;;;3.34;84.53
72118;BME280;59992;47.490;8.736;2023-02-20T05:40:30;97750.52;;;3.31;85.12
72118;BME280;59992;47.490;8.736;2023-02-20T05:42:58;97752.73;;;3.27;85.98
72118;BME280;59992;47.490;8.736;2023-02-20T05:45:25;97748.38;;;3.24;85.28
72118;BME280;59992;47.490;8.736;2023-02-20T05:47:54;97747.61;;;3.19;85.30
72118;BME280;59992;47.490;8.736;2023-02-20T05:50:24;97743.79;;;3.15;85.64
72118;BME280;59992;47.490;8.736;2023-02-20T05:52:52;97742.07;;;3.10;86.01
72118;BME280;59992;47.490;8.736;2023-02-20T05:55:19;97738.22;;;3.05;87.12
72118;BME280;59992;47.490;8.736;2023-02-20T05:57:47;97742.55;;;3.02;86.55
72118;BME280;59992;47.490;8.736;2023-02-20T06:00:15;97742.00;;;2.99;86.58
72118;BME280;59992;47.490;8.736;2023-02-20T06:02:43;97745.60;;;2.96;87.13
72118;BME280;59992;47.490;8.736;2023-02-20T06:05:10;97752.66;;;2.94;86.93
72118;BME280;59992;47.490;8.736;2023-02-20T06:07:38;97745.34;;;2.89;86.03
72118;BME280;59992;47.490;8.736;2023-02-20T06:10:06;97745.34;;;2.84;86.15
72118;BME280;59992;47.490;8.736;2023-02-20T06:12:34;97746.48;;;2.77;87.12
72118;BME280;59992;47.490;8.736;2023-02-20T06:15:01;97754.30;;;2.71;87.81
72118;BME280;59992;47.490;8.736;2023-02-20T06:17:31;97753.19;;;2.68;87.45
72118;BME280;59992;47.490;8.736;2023-02-20T06:19:59;97747.35;;;2.65;87.21
72118;BME280;59992;47.490;8.736;2023-02-20T06:22:26;97748.71;;;2.60;88.14
72118;BME280;59992;47.490;8.736;2023-02-20T06:24:54;97745.98;;;2.61;88.03
72118;BME280;59992;47.490;8.736;2023-02-20T06:27:22;97745.30;;;2.58;88.21
72118;BME280;59992;47.490;8.736;2023-02-20T06:29:50;97740.96;;;2.56;89.61
72118;BME280;59992;47.490;8.736;2023-02-20T06:32:17;97740.29;;;2.58;88.89
72118;BME280;59992;47.490;8.736;2023-02-20T06:34:48;97733.44;;;2.57;89.18
72118;BME280;59992;47.490;8.736;2023-02-20T06:37:16;97730.71;;;2.59;88.28
72118;BME280;59992;47.490;8.736;2023-02-20T06:39:43;97728.88;;;2.60;87.34
72118;BME280;59992;47.490;8.736;2023-02-20T06:42:12;97732.13;;;2.59;86.89
72118;BME280;59992;47.490;8.736;2023-02-20T06:44:40;97736.74;;;2.59;87.56
72118;BME280;59992;47.490;8.736;2023-02-20T06:47:08;97740.66;;;2.60;87.60
72118;BME280;59992;47.490;8.736;2023-02-20T06:49:35;97740.62;;;2.64;87.67
72118;BME280;59992;47.490;8.736;2023-02-20T06:52:04;97742.02;;;2.69;87.88
72118;BME280;59992;47.490;8.736;2023-02-20T06:54:33;97742.60;;;2.76;88.01
72118;BME280;59992;47.490;8.736;2023-02-20T06:57:00;97746.99;;;2.82;87.47
72118;BME280;59992;47.490;8.736;2023-02-20T06:59:31;97747.28;;;2.92;87.82
72118;BME280;59992;47.490;8.736;2023-02-20T07:01:59;97751.16;;;3.08;86.97
72118;BME280;59992;47.490;8.736;2023-02-20T07:04:27;97748.30;;;3.30;86.34
72118;BME280;59992;47.490;8.736;2023-02-20T07:06:55;97743.80;;;3.60;85.92
72118;BME280;59992;47.490;8.736;2023-02-20T07:09:22;97741.53;;;3.96;84.61
72118;BME280;59992;47.490;8.736;2023-02-20T07:11:52;97745.49;;;4.33;83.64
72118;BME280;59992;47.490;8.736;2023-02-20T07:14:20;97751.79;;;4.69;82.14
72118;BME280;59992;47.490;8.736;2023-02-20T07:16:47;97753.12;;;5.07;80.73
72118;BME280;59992;47.490;8.736;2023-02-20T07:19:15;97752.49;;;5.42;79.51
72118;BME280;59992;47.490;8.736;2023-02-20T07:21:43;97750.25;;;5.71;78.04
72118;BME280;59992;47.490;8.736;2023-02-20T07:24:12;97749.13;;;5.96;77.38
72118;BME280;59992;47.490;8.736;2023-02-20T07:26:40;97734.01;;;6.15;76.60
72118;BME280;59992;47.490;8.736;2023-02-20T07:29:08;97749.05;;;6.54;76.10
72118;BME280;59992;47.490;8.736;2023-02-20T07:31:36;97749.40;;;6.90;76.12
72118;BME280;59992;47.490;8.736;2023-02-20T07:34:04;97747.70;;;7.18;73.93
72118;BME280;59992;47.490;8.736;2023-02-20T07:36:32;97741.36;;;7.27;72.87
72118;BME280;59992;47.490;8.736;2023-02-20T07:39:01;97743.38;;;7.54;73.49
72118;BME280;59992;47.490;8.736;2023-02-20T07:41:30;97744.57;;;7.82;71.69
72118;BME280;59992;47.490;8.736;2023-02-20T07:43:58;97738.75;;;8.06;70.98
72118;BME280;59992;47.490;8.736;2023-02-20T07:46:26;97739.73;;;8.17;69.79
72118;BME280;59992;47.490;8.736;2023-02-20T07:48:54;97731.35;;;8.28;69.43
72118;BME280;59992;47.490;8.736;2023-02-20T07:51:21;97723.58;;;8.34;68.52
72118;BME280;59992;47.490;8.736;2023-02-20T07:53:50;97732.54;;;8.50;68.18
72118;BME280;59992;47.490;8.736;2023-02-20T07:56:19;97737.14;;;8.61;67.36
72118;BME280;59992;47.490;8.736;2023-02-20T07:58:47;97744.06;;;8.76;67.91
72118;BME280;59992;47.490;8.736;2023-02-20T08:01:17;97743.30;;;8.87;66.76
72118;BME280;59992;47.490;8.736;2023-02-20T08:03:45;97735.61;;;8.97;66.85
72118;BME280;59992;47.490;8.736;2023-02-20T08:06:14;97731.91;;;9.07;65.89
72118;BME280;59992;47.490;8.736;2023-02-20T08:08:43;97726.92;;;9.18;66.69
72118;BME280;59992;47.490;8.736;2023-02-20T08:11:12;97726.65;;;9.37;66.97
72118;BME280;59992;47.490;8.736;2023-02-20T08:13:42;97725.04;;;9.51;64.88
72118;BME280;59992;47.490;8.736;2023-02-20T08:16:10;97724.35;;;9.70;65.26
72118;BME280;59992;47.490;8.736;2023-02-20T08:18:37;97726.63;;;9.83;65.66
72118;BME280;59992;47.490;8.736;2023-02-20T08:21:06;97727.46;;;9.90;63.68
72118;BME280;59992;47.490;8.736;2023-02-20T08:23:34;97719.81;;;9.94;64.07
72118;BME280;59992;47.490;8.736;2023-02-20T08:26:03;97723.83;;;10.01;63.62
72118;BME280;59992;47.490;8.736;2023-02-20T08:28:31;97721.72;;;10.21;64.31
72118;BME280;59992;47.490;8.736;2023-02-20T08:31:00;97717.20;;;10.26;62.84
72118;BME280;59992;47.490;8.736;2023-02-20T08:33:27;97713.58;;;10.29;62.94
72118;BME280;59992;47.490;8.736;2023-02-20T08:35:55;97719.64;;;10.36;63.00
72118;BME280;59992;47.490;8.736;2023-02-20T08:38:29;97720.38;;;10.54;63.69
72118;BME280;59992;47.490;8.736;2023-02-20T08:40:57;97721.61;;;10.72;61.37
72118;BME280;59992;47.490;8.736;2023-02-20T08:43:25;97723.08;;;10.75;60.78
72118;BME280;59992;47.490;8.736;2023-02-20T08:45:53;97721.21;;;10.81;60.53
72118;BME280;59992;47.490;8.736;2023-02-20T08:48:20;97723.07;;;10.89;60.92
72118;BME280;59992;47.490;8.736;2023-02-20T08:50:48;97716.80;;;10.98;61.22
72118;BME280;59992;47.490;8.736;2023-02-20T08:53:17;97714.66;;;10.89;59.86
72118;BME280;59992;47.490;8.736;2023-02-20T08:55:45;97713.13;;;10.89;61.17
72118;BME280;59992;47.490;8.736;2023-02-20T08:58:12;97708.16;;;10.77;61.44
72118;BME280;59992;47.490;8.736;2023-02-20T09:00:40;97704.29;;;10.68;61.00
72118;BME280;59992;47.490;8.736;2023-02-20T09:03:08;97707.61;;;10.65;61.54
72118;BME280;59992;47.490;8.736;2023-02-20T09:05:36;97706.35;;;10.66;61.37
72118;BME280;59992;47.490;8.736;2023-02-20T09:08:05;97699.85;;;10.66;63.08
72118;BME280;59992;47.490;8.736;2023-02-20T09:10:33;97705.06;;;10.73;61.84
72118;BME280;59992;47.490;8.736;2023-02-20T09:13:01;97696.87;;;10.66;60.92
72118;BME280;59992;47.490;8.736;2023-02-20T09:15:29;97696.83;;;10.52;60.25
72118;BME280;59992;47.490;8.736;2023-02-20T09:17:57;97690.25;;;10.45;61.74
72118;BME280;59992;47.490;8.736;2023-02-20T09:20:25;97692.45;;;10.50;61.71
72118;BME280;59992;47.490;8.736;2023-02-20T09:22:57;97688.73;;;10.52;61.29
72118;BME280;59992;47.490;8.736;2023-02-20T09:25:26;97688.80;;;10.51;62.17
72118;BME280;59992;47.490;8.736;2023-02-20T09:27:54;97684.57;;;10.47;62.19
72118;BME280;59992;47.490;8.736;2023-02-20T09:30:21;97681.71;;;10.51;62.67
72118;BME280;59992;47.490;8.736;2023-02-20T09:32:49;97676.50;;;10.54;62.77
72118;BME280;59992;47.490;8.736;2023-02-20T09:35:19;97677.98;;;10.62;62.50
72118;BME280;59992;47.490;8.736;2023-02-20T09:37:47;97677.07;;;10.67;61.69
72118;BME280;59992;47.490;8.736;2023-02-20T09:40:16;97675.58;;;10.78;62.11
72118;BME280;59992;47.490;8.736;2023-02-20T09:42:51;97673.51;;;10.87;61.54
72118;BME280;59992;47.490;8.736;2023-02-20T09:45:26;97671.50;;;10.96;61.71
72118;BME280;59992;47.490;8.736;2023-02-20T09:48:12;97666.96;;;11.07;61.54
72118;BME280;59992;47.490;8.736;2023-02-20T09:50:46;97667.63;;;11.17;60.77
72118;BME280;59992;47.490;8.736;2023-02-20T09:53:22;97667.65;;;11.26;60.23
72118;BME280;59992;47.490;8.736;2023-02-20T09:55:52;97665.55;;;11.37;60.15
72118;BME280;59992;47.490;8.736;2023-02-20T09:58:26;97657.98;;;11.47;59.71
72118;BME280;59992;47.490;8.736;2023-02-20T10:00:58;97658.44;;;11.52;59.86
72118;BME280;59992;47.490;8.736;2023-02-20T10:03:33;97657.72;;;11.56;59.40
72118;BME280;59992;47.490;8.736;2023-02-20T10:06:12;97653.73;;;11.54;59.70
72118;BME280;59992;47.490;8.736;2023-02-20T10:08:42;97656.02;;;11.66;58.41
72118;BME280;59992;47.490;8.736;2023-02-20T10:11:18;97661.42;;;11.78;59.23
72118;BME280;59992;47.490;8.736;2023-02-20T10:13:58;97660.18;;;11.82;59.14
72118;BME280;59992;47.490;8.736;2023-02-20T10:16:35;97660.38;;;11.87;58.90
72118;BME280;59992;47.490;8.736;2023-02-20T10:19:13;97656.64;;;11.92;58.85
72118;BME280;59992;47.490;8.736;2023-02-20T10:21:52;97658.86;;;11.96;58.45
72118;BME280;59992;47.490;8.736;2023-02-20T10:24:33;97655.02;;;11.97;58.27
72118;BME280;59992;47.490;8.736;2023-02-20T10:27:08;97656.66;;;12.03;57.73
72118;BME280;59992;47.490;8.736;2023-02-20T10:29:41;97658.20;;;12.09;58.14
72118;BME280;59992;47.490;8.736;2023-02-20T10:32:15;97660.48;;;12.09;57.45
72118;BME280;59992;47.490;8.736;2023-02-20T10:34:53;97659.61;;;12.17;57.28
72118;BME280;59992;47.490;8.736;2023-02-20T10:37:25;97661.52;;;12.18;57.12
72118;BME280;59992;47.490;8.736;2023-02-20T10:39:59;97651.58;;;12.14;57.49
72118;BME280;59992;47.490;8.736;2023-02-20T10:42:32;97657.02;;;12.32;57.65
72118;BME280;59992;47.490;8.736;2023-02-20T10:45:08;97660.95;;;12.35;57.14
72118;BME280;59992;47.490;8.736;2023-02-20T10:47:44;97656.96;;;12.30;56.56
72118;BME280;59992;47.490;8.736;2023-02-20T10:50:17;97661.34;;;12.26;55.38
72118;BME280;59992;47.490;8.736;2023-02-20T10:52:51;97658.12;;;12.34;56.42
72118;BME280;59992;47.490;8.736;2023-02-20T10:55:25;97656.34;;;12.39;56.27
72118;BME280;59992;47.490;8.736;2023-02-20T10:57:59;97650.52;;;12.40;56.39
72118;BME280;59992;47.490;8.736;2023-02-20T11:00:32;97649.74;;;12.43;56.25
72118;BME280;59992;47.490;8.736;2023-02-20T11:03:07;97643.73;;;12.45;56.24
72118;BME280;59992;47.490;8.736;2023-02-20T11:05:42;97642.20;;;12.48;56.75
72118;BME280;59992;47.490;8.736;2023-02-20T11:08:11;97640.33;;;12.50;56.15
72118;BME280;59992;47.490;8.736;2023-02-20T11:10:40;97634.50;;;12.51;55.74
72118;BME280;59992;47.490;8.736;2023-02-20T11:13:12;97631.16;;;12.47;55.56
72118;BME280;59992;47.490;8.736;2023-02-20T11:15:42;97631.02;;;12.51;57.18
72118;BME280;59992;47.490;8.736;2023-02-20T11:18:21;97622.58;;;12.58;57.02
72118;BME280;59992;47.490;8.736;2023-02-20T11:20:52;97618.66;;;12.42;55.75
72118;BME280;59992;47.490;8.736;2023-02-20T11:23:38;97617.30;;;12.49;56.42
72118;BME280;59992;47.490;8.736;2023-02-20T11:26:28;97612.23;;;12.61;56.68
72118;BME280;59992;47.490;8.736;2023-02-20T11:29:00;97606.00;;;12.61;56.36
72118;BME280;59992;47.490;8.736;2023-02-20T11:31:29;97606.39;;;12.65;56.71
72118;BME280;59992;47.490;8.736;2023-02-20T11:33:57;97597.33;;;12.60;55.96
72118;BME280;59992;47.490;8.736;2023-02-20T11:36:30;97594.45;;;12.72;56.71
72118;BME280;59992;47.490;8.736;2023-02-20T11:39:01;97588.47;;;12.81;56.41
72118;BME280;59992;47.490;8.736;2023-02-20T11:41:33;97582.97;;;12.86;56.31
72118;BME280;59992;47.490;8.736;2023-02-20T11:44:19;97571.81;;;12.84;55.92
72118;BME280;59992;47.490;8.736;2023-02-20T11:46:47;97567.43;;;12.89;55.95
72118;BME280;59992;47.490;8.736;2023-02-20T11:49:34;97564.73;;;12.91;55.64
72118;BME280;59992;47.490;8.736;2023-02-20T11:52:14;97559.77;;;12.94;55.51
72118;BME280;59992;47.490;8.736;2023-02-20T11:54:42;97555.59;;;13.05;55.57
72118;BME280;59992;47.490;8.736;2023-02-20T11:57:24;97549.14;;;13.13;55.56
72118;BME280;59992;47.490;8.736;2023-02-20T12:00:09;97542.15;;;13.21;55.45
72118;BME280;59992;47.490;8.736;2023-02-20T12:02:49;97531.02;;;13.32;54.94
72118;BME280;59992;47.490;8.736;2023-02-20T12:05:18;97523.99;;;13.40;56.18
72118;BME280;59992;47.490;8.736;2023-02-20T12:07:55;97517.61;;;13.45;56.04
72118;BME280;59992;47.490;8.736;2023-02-20T12:10:31;97512.23;;;13.51;53.76
72118;BME280;59992;47.490;8.736;2023-02-20T12:13:02;97505.67;;;13.59;54.54
72118;BME280;59992;47.490;8.736;2023-02-20T12:15:30;97501.78;;;13.63;53.67
72118;BME280;59992;47.490;8.736;2023-02-20T12:20:56;97498.55;;;13.75;53.11
72118;BME280;59992;47.490;8.736;2023-02-20T12:23:34;97498.84;;;13.80;54.26
72118;BME280;59992;47.490;8.736;2023-02-20T12:26:13;97496.02;;;13.85;52.90
72118;BME280;59992;47.490;8.736;2023-02-20T12:28:55;97489.48;;;13.89;53.35
72118;BME280;59992;47.490;8.736;2023-02-20T12:31:34;97485.33;;;13.91;52.42
72118;BME280;59992;47.490;8.736;2023-02-20T12:34:20;97480.05;;;13.96;53.34
72118;BME280;59992;47.490;8.736;2023-02-20T12:36:56;97477.34;;;13.97;51.85
72118;BME280;59992;47.490;8.736;2023-02-20T12:39:32;97472.58;;;14.01;51.73
72118;BME280;59992;47.490;8.736;2023-02-20T12:42:13;97464.70;;;13.98;49.23
72118;BME280;59992;47.490;8.736;2023-02-20T12:44:58;97457.84;;;13.99;51.72
72118;BME280;59992;47.490;8.736;2023-02-20T12:47:32;97459.95;;;14.07;52.52
72118;BME280;59992;47.490;8.736;2023-02-20T12:50:24;97458.60;;;14.14;53.17
72118;BME280;59992;47.490;8.736;2023-02-20T12:55:58;97449.77;;;14.20;53.61
72118;BME280;59992;47.490;8.736;2023-02-20T12:58:46;97446.27;;;14.21;52.92
72118;BME280;59992;47.490;8.736;2023-02-20T13:01:19;97437.15;;;14.23;52.21
72118;BME280;59992;47.490;8.736;2023-02-20T13:04:01;97436.48;;;14.24;52.80
72118;BME280;59992;47.490;8.736;2023-02-20T13:06:34;97427.00;;;14.21;53.42
72118;BME280;59992;47.490;8.736;2023-02-20T13:09:15;97431.77;;;14.25;49.83
72118;BME280;59992;47.490;8.736;2023-02-20T13:11:47;97425.91;;;14.29;50.91
72118;BME280;59992;47.490;8.736;2023-02-20T13:14:28;97419.34;;;14.35;51.32
72118;BME280;59992;47.490;8.736;2023-02-20T13:17:06;97408.34;;;14.38;46.83
72118;BME280;59992;47.490;8.736;2023-02-20T13:19:41;97396.04;;;14.36;45.61
72118;BME280;59992;47.490;8.736;2023-02-20T13:22:11;97392.25;;;14.44;48.66
72118;BME280;59992;47.490;8.736;2023-02-20T13:24:39;97385.70;;;14.51;49.30
72118;BME280;59992;47.490;8.736;2023-02-20T13:27:08;97379.64;;;14.56;48.53
72118;BME280;59992;47.490;8.736;2023-02-20T13:29:37;97378.48;;;14.60;49.72
72118;BME280;59992;47.490;8.736;2023-02-20T13:32:23;97383.54;;;14.65;46.98
72118;BME280;59992;47.490;8.736;2023-02-20T13:34:51;97383.27;;;14.68;46.66
72118;BME280;59992;47.490;8.736;2023-02-20T13:37:49;97381.90;;;14.68;43.49
72118;BME280;59992;47.490;8.736;2023-02-20T13:40:42;97372.23;;;14.77;46.13
72118;BME280;59992;47.490;8.736;2023-02-20T13:43:28;97373.42;;;14.84;45.93